Terminal Aerodrome Forecast
Issued by NWS Jackson, MS

Home | Current Version | Previous Version | Text Only | Print | Product List | Glossary On
Versions: 1 2 3 4 5 6 7 8 9 10 11 12 13 14 15
000
FTUS44 KJAN 031720
TAFMEI
TAF
KMEI 031720Z 0318/0418 VRB03KT P6SM SCT060
     FM040600 00000KT 5SM BR SKC
     FM041400 33004KT P6SM SCT040=

USA.gov is the U.S. government's official web portal to all federal, state and local government web resources and services.